Time;durP1;ratioP1;P1;durP2;ratioP2;P2;SDS_P1;SDS_P2;PMS_P1;PMS_P2;Temp;Humidity;BMP_temperature;BMP_pressure;BME280_temperature;BME280_humidity;BME280_pressure;Samples;Min_cycle;Max_cycle;Signal;HPM_P1;HPM_P2
2021/07/21 00:00:36;;;;;;;104.57;11.85;;;;;;;15.89;77.48;98368.59;5027362;28;20071;-70
2021/07/21 00:03:02;;;;;;;115.88;12.75;;;;;;;15.76;78.11;98376.31;5028512;28;20029;-69
2021/07/21 00:05:27;;;;;;;126.63;12.60;;;;;;;15.78;77.90;98375.28;5028382;28;20048;-70
2021/07/21 00:07:56;;;;;;;140.68;13.68;;;;;;;15.82;77.89;98369.84;5026343;28;20148;-71
2021/07/21 00:10:24;;;;;;;102.32;12.13;;;;;;;16.16;76.26;98374.06;5025536;28;20041;-71
2021/07/21 00:15:39;;;;;;;127.05;12.85;;;;;;;16.56;73.56;98371.72;5026267;28;20098;-69
2021/07/21 00:21:03;;;;;;;123.43;12.73;;;;;;;15.64;77.82;98367.31;4989680;28;20042;-68
2021/07/21 00:23:28;;;;;;;125.38;12.88;;;;;;;15.59;78.05;98372.81;5028731;28;20028;-69
2021/07/21 00:25:56;;;;;;;141.82;13.20;;;;;;;15.29;79.17;98366.59;5027604;28;20045;-69
2021/07/21 00:28:22;;;;;;;141.98;13.60;;;;;;;15.51;78.64;98367.16;5027063;28;20104;-68
2021/07/21 00:30:47;;;;;;;125.85;12.57;;;;;;;15.67;77.86;98361.03;5027170;28;20128;-69
2021/07/21 00:33:13;;;;;;;127.55;12.57;;;;;;;15.58;78.38;98368.47;5028603;28;20052;-69
2021/07/21 00:35:39;;;;;;;118.03;12.23;;;;;;;15.37;79.04;98369.69;5024142;28;20410;-69
2021/07/21 00:38:04;;;;;;;120.40;12.55;;;;;;;15.43;79.21;98377.22;5025792;28;20083;-69
2021/07/21 00:40:30;;;;;;;130.75;12.32;;;;;;;15.54;78.39;98374.84;5025316;28;20555;-68
2021/07/21 00:42:56;;;;;;;134.50;13.05;;;;;;;15.43;78.59;98369.34;5027782;28;20060;-69
2021/07/21 00:45:21;;;;;;;120.38;12.15;;;;;;;15.48;78.39;98367.31;5025587;28;20140;-67
2021/07/21 00:47:47;;;;;;;148.57;13.38;;;;;;;15.40;79.75;98367.72;5026834;28;20644;-70
2021/07/21 00:50:12;;;;;;;128.07;12.90;;;;;;;15.41;79.58;98364.16;5025697;28;20052;-71
2021/07/21 00:52:40;;;;;;;122.40;12.27;;;;;;;15.26;79.80;98361.53;5026465;28;20413;-71
2021/07/21 00:55:09;;;;;;;179.90;14.27;;;;;;;15.40;78.71;98357.22;5025065;28;20931;-71
2021/07/21 00:57:36;;;;;;;127.28;12.30;;;;;;;15.37;79.57;98369.69;5024063;28;20053;-70
2021/07/21 01:00:02;;;;;;;120.90;12.35;;;;;;;15.30;78.85;98363.06;5026679;28;20027;-68
2021/07/21 01:02:27;;;;;;;124.45;12.52;;;;;;;15.23;79.19;98358.13;5025882;28;20485;-69
2021/07/21 01:04:53;;;;;;;124.60;12.25;;;;;;;15.74;76.56;98367.66;5028124;28;20717;-69
2021/07/21 01:07:18;;;;;;;130.63;12.25;;;;;;;15.78;75.99;98364.75;5023854;28;20448;-72
2021/07/21 01:09:45;;;;;;;132.35;12.05;;;;;;;15.90;75.68;98363.25;5025936;28;20033;-70
2021/07/21 01:12:23;;;;;;;105.25;11.43;;;;;;;15.35;78.06;98363.66;5026025;28;20037;-69
2021/07/21 01:15:24;;;;;;;126.47;12.07;;;;;;;15.18;79.36;98364.56;5040161;28;20399;-69
2021/07/21 01:17:57;;;;;;;144.00;13.27;;;;;;;15.05;80.24;98367.00;5027641;28;20312;-70
2021/07/21 01:20:38;;;;;;;122.10;12.18;;;;;;;15.06;79.24;98371.31;5025134;28;20071;-69
2021/07/21 01:23:09;;;;;;;124.15;12.32;;;;;;;14.91;79.50;98366.91;5024461;28;20029;-70
2021/07/21 01:25:56;;;;;;;121.40;12.00;;;;;;;14.70;80.07;98361.81;5026633;28;20120;-70
2021/07/21 01:28:27;;;;;;;106.80;11.07;;;;;;;15.03;78.72;98364.47;5029371;28;20108;-70
2021/07/21 01:30:53;;;;;;;127.65;12.05;;;;;;;15.11;79.28;98358.78;5030285;28;20041;-69
2021/07/21 01:33:21;;;;;;;124.03;12.82;;;;;;;14.71;79.91;98358.28;5029673;28;20499;-69
2021/07/21 01:35:53;;;;;;;123.20;12.20;;;;;;;14.90;79.29;98365.19;5030708;28;20040;-69
2021/07/21 01:38:24;;;;;;;118.13;13.02;;;;;;;14.61;80.16;98360.53;5030424;28;20025;-69
2021/07/21 01:40:56;;;;;;;129.52;12.73;;;;;;;14.80;79.34;98354.31;5030078;28;20883;-69
2021/07/21 01:43:25;;;;;;;98.70;10.70;;;;;;;15.60;76.73;98356.13;5031110;28;20035;-69
2021/07/21 01:45:52;;;;;;;125.65;11.10;;;;;;;15.93;79.74;98356.94;5031153;28;20125;-70
2021/07/21 01:48:18;;;;;;;108.28;11.07;;;;;;;15.23;79.24;98352.03;5030219;28;20442;-69
2021/07/21 01:50:46;;;;;;;92.32;11.15;;;;;;;14.97;77.96;98358.69;5029230;28;20550;-71
2021/07/21 01:53:13;;;;;;;103.35;11.73;;;;;;;14.69;78.92;98368.00;5031828;28;20040;-70
2021/07/21 01:55:40;;;;;;;107.05;12.15;;;;;;;14.70;78.48;98359.19;5030207;28;20037;-71
2021/07/21 01:58:07;;;;;;;97.82;10.43;;;;;;;14.99;79.51;98356.81;5029405;28;20052;-71
2021/07/21 02:00:34;;;;;;;101.75;11.98;;;;;;;14.96;78.28;98359.59;5030495;28;20035;-70
2021/07/21 02:03:01;;;;;;;110.70;11.70;;;;;;;14.83;79.79;98360.28;5032029;28;20619;-71
2021/07/21 02:05:27;;;;;;;116.43;11.88;;;;;;;14.50;79.68;98369.84;5030454;28;20049;-70
2021/07/21 02:07:54;;;;;;;113.70;11.35;;;;;;;15.40;77.53;98365.09;5031210;28;20032;-71
2021/07/21 02:10:26;;;;;;;111.68;11.27;;;;;;;14.61;78.98;98364.91;5030538;28;20105;-70
2021/07/21 02:12:57;;;;;;;121.63;11.68;;;;;;;15.11;80.55;98364.06;5030765;28;20033;-70
2021/07/21 02:15:24;;;;;;;119.70;12.25;;;;;;;14.46;80.04;98362.16;5028435;28;20671;-70
2021/07/21 02:17:50;;;;;;;146.95;12.57;;;;;;;15.28;80.21;98359.66;5028084;28;20499;-69
2021/07/21 02:20:16;;;;;;;108.97;11.57;;;;;;;15.00;78.43;98362.00;5031479;28;20097;-70
2021/07/21 02:22:43;;;;;;;88.30;10.00;;;;;;;15.06;80.27;98362.59;5028967;28;20082;-69
2021/07/21 02:25:10;;;;;;;123.78;11.90;;;;;;;14.46;78.88;98361.28;5030427;28;20139;-69
2021/07/21 02:27:36;;;;;;;122.05;12.27;;;;;;;14.31;79.69;98362.06;5031050;28;20021;-69
2021/07/21 02:30:04;;;;;;;96.22;11.38;;;;;;;14.10;80.52;98363.97;5031701;28;20029;-69
2021/07/21 02:32:32;;;;;;;113.30;11.80;;;;;;;13.89;80.71;98366.72;5031132;28;20040;-71
2021/07/21 02:34:58;;;;;;;102.13;11.10;;;;;;;13.93;80.62;98368.31;5030681;28;20031;-69
2021/07/21 02:37:24;;;;;;;128.30;12.05;;;;;;;13.83;81.43;98373.13;5027535;28;20051;-69
2021/07/21 02:39:52;;;;;;;129.45;12.23;;;;;;;13.98;80.86;98371.53;5027530;28;20021;-69
2021/07/21 02:42:18;;;;;;;135.02;12.48;;;;;;;14.28;79.06;98373.56;5027478;28;20042;-69
2021/07/21 02:44:45;;;;;;;113.03;12.07;;;;;;;14.33;79.00;98368.91;5031805;28;20034;-68
2021/07/21 02:47:11;;;;;;;127.15;12.70;;;;;;;14.21;78.88;98369.56;5028835;28;20091;-69
2021/07/21 02:49:38;;;;;;;121.55;12.40;;;;;;;14.18;79.31;98373.16;5027643;28;20029;-69
2021/07/21 02:52:18;;;;;;;138.40;12.20;;;;;;;14.21;80.08;98373.03;5027799;28;20098;-70
2021/07/21 02:54:58;;;;;;;114.43;10.80;;;;;;;14.77;79.44;98376.31;5027618;28;20020;-69
2021/07/21 02:57:32;;;;;;;125.93;11.00;;;;;;;15.37;78.59;98367.06;5026642;28;20064;-71
2021/07/21 03:00:04;;;;;;;117.47;11.10;;;;;;;15.27;78.62;98369.31;5036392;28;20017;-69
2021/07/21 03:02:30;;;;;;;105.82;11.48;;;;;;;15.02;77.54;98370.63;5028696;28;20044;-70
2021/07/21 03:04:57;;;;;;;121.82;11.52;;;;;;;15.18;78.27;98369.81;5029945;28;20503;-70
2021/07/21 03:07:23;;;;;;;141.52;11.65;;;;;;;15.51;77.17;98369.78;5026275;28;20056;-69
2021/07/21 03:09:52;;;;;;;130.00;11.55;;;;;;;15.28;78.88;98371.03;5027064;28;20029;-70
2021/07/21 03:12:17;;;;;;;130.00;11.77;;;;;;;15.19;75.04;98368.88;5028593;28;20045;-71
2021/07/21 03:14:44;;;;;;;137.23;12.10;;;;;;;15.23;76.70;98371.25;5029478;28;20025;-71
2021/07/21 03:17:14;;;;;;;99.28;10.38;;;;;;;15.79;76.52;98371.72;5028053;28;20034;-69
2021/07/21 03:19:48;;;;;;;127.78;11.45;;;;;;;15.42;75.59;98371.13;5029655;28;20052;-69
2021/07/21 03:22:16;;;;;;;116.70;11.38;;;;;;;14.93;76.00;98372.91;5027066;28;20781;-70
2021/07/21 03:24:43;;;;;;;112.88;10.70;;;;;;;15.32;78.58;98376.97;5027546;28;20041;-69
2021/07/21 03:27:10;;;;;;;103.28;10.15;;;;;;;15.57;74.91;98379.09;5027383;28;20771;-69
2021/07/21 03:29:35;;;;;;;114.47;10.43;;;;;;;15.74;75.14;98378.19;5028472;28;20083;-68
2021/07/21 03:32:02;;;;;;;119.85;11.68;;;;;;;15.07;75.54;98377.41;5027816;28;20438;-70
2021/07/21 03:34:28;;;;;;;131.52;11.50;;;;;;;15.00;76.44;98376.91;5028014;28;20559;-72
2021/07/21 03:36:56;;;;;;;129.90;11.90;;;;;;;14.49;77.25;98376.03;5027806;28;20038;-68
2021/07/21 03:39:22;;;;;;;127.53;11.20;;;;;;;14.84;78.66;98377.69;5026661;28;20040;-68
2021/07/21 03:41:49;;;;;;;120.22;11.63;;;;;;;14.26;77.89;98385.91;5026539;28;20042;-72
2021/07/21 03:44:19;;;;;;;110.90;11.32;;;;;;;14.14;78.31;98383.91;5027459;28;20029;-71
2021/07/21 03:46:45;;;;;;;118.20;11.80;;;;;;;13.91;78.92;98385.84;5026697;28;20045;-71
2021/07/21 03:49:12;;;;;;;135.73;12.48;;;;;;;13.71;80.16;98388.59;5027184;28;20025;-68
2021/07/21 03:51:39;;;;;;;122.35;11.80;;;;;;;13.73;80.31;98387.59;5027787;28;20037;-68
2021/07/21 03:54:07;;;;;;;109.22;11.75;;;;;;;13.69;81.03;98386.91;5026891;28;20709;-69
2021/07/21 03:56:33;;;;;;;129.00;12.13;;;;;;;13.79;80.29;98391.72;5026290;28;20098;-69
2021/07/21 03:59:01;;;;;;;137.07;12.50;;;;;;;14.15;78.98;98382.97;5027237;28;20041;-69
2021/07/21 04:01:27;;;;;;;137.50;12.60;;;;;;;14.17;79.84;98395.09;5027359;28;20064;-69
2021/07/21 04:03:54;;;;;;;132.38;12.07;;;;;;;14.74;79.42;98394.88;5024810;28;20033;-69
2021/07/21 04:06:20;;;;;;;132.30;11.50;;;;;;;14.82;76.98;98392.69;5027516;28;20053;-69
2021/07/21 04:08:48;;;;;;;125.72;11.60;;;;;;;14.69;77.57;98396.91;5028527;28;20536;-69
2021/07/21 04:11:14;;;;;;;127.95;12.00;;;;;;;14.81;78.35;98393.66;5026369;28;20406;-69
2021/07/21 04:13:41;;;;;;;144.88;12.52;;;;;;;14.72;77.66;98399.38;5026741;28;20503;-69
2021/07/21 04:16:12;;;;;;;123.03;11.65;;;;;;;15.01;78.00;98392.56;5024866;28;20042;-69
2021/07/21 04:18:39;;;;;;;119.00;11.75;;;;;;;14.97;76.88;98395.47;5027023;28;20504;-68
2021/07/21 04:21:08;;;;;;;138.15;11.70;;;;;;;15.03;78.78;98400.38;5027422;28;20037;-71
2021/07/21 04:23:38;;;;;;;96.20;10.07;;;;;;;15.25;78.20;98407.97;5025789;28;20029;-70
2021/07/21 04:26:03;;;;;;;124.72;11.35;;;;;;;14.95;76.93;98410.44;5026768;28;20595;-69
2021/07/21 04:28:29;;;;;;;102.82;10.57;;;;;;;14.83;79.04;98418.03;5027061;28;20652;-70
2021/07/21 04:30:57;;;;;;;112.97;11.25;;;;;;;15.08;77.75;98416.75;5025413;28;20072;-70
2021/07/21 04:33:24;;;;;;;129.98;12.13;;;;;;;15.53;75.25;98420.50;5027039;28;20025;-71
2021/07/21 04:35:49;;;;;;;130.57;11.88;;;;;;;15.39;76.06;98412.50;5033576;28;20122;-70
2021/07/21 04:38:16;;;;;;;113.60;10.98;;;;;;;15.66;75.77;98411.91;5027661;28;20116;-72
2021/07/21 04:40:44;;;;;;;114.13;11.25;;;;;;;15.89;75.21;98416.78;5026075;28;21012;-70
2021/07/21 04:43:10;;;;;;;101.15;10.45;;;;;;;15.61;75.41;98415.63;5026866;28;20032;-71
2021/07/21 04:45:41;;;;;;;101.13;10.60;;;;;;;16.47;73.20;98420.50;5026842;28;20139;-70
2021/07/21 04:48:06;;;;;;;117.85;11.68;;;;;;;16.08;74.26;98423.63;5026399;28;20047;-71
2021/07/21 04:50:32;;;;;;;110.30;11.00;;;;;;;15.83;75.78;98429.44;5028045;28;20426;-70
2021/07/21 04:52:58;;;;;;;120.88;11.07;;;;;;;15.81;77.01;98432.16;5027297;28;20551;-72
2021/07/21 04:55:23;;;;;;;122.72;12.07;;;;;;;16.12;74.72;98425.13;5024515;28;20656;-70
2021/07/21 04:57:49;;;;;;;142.45;13.52;;;;;;;15.49;76.97;98432.06;5026219;28;20033;-70
2021/07/21 05:00:16;;;;;;;118.45;12.45;;;;;;;15.48;78.33;98430.41;5025542;28;20434;-70
2021/07/21 05:02:41;;;;;;;164.27;14.50;;;;;;;15.60;78.17;98432.38;5019936;28;20024;-70
2021/07/21 05:05:07;;;;;;;83.18;11.23;;;;;;;16.13;76.62;98437.38;5033211;28;20025;-71
2021/07/21 05:07:32;;;;;;;117.53;12.52;;;;;;;16.03;76.08;98434.44;5033984;28;20785;-69
2021/07/21 05:09:57;;;;;;;97.68;11.52;;;;;;;15.57;78.22;98435.16;5032486;28;20536;-70
2021/07/21 05:12:23;;;;;;;92.55;11.88;;;;;;;15.70;77.98;98435.34;5032253;28;20041;-70
2021/07/21 05:14:48;;;;;;;92.03;10.90;;;;;;;15.76;77.93;98439.44;5033442;28;20036;-70
2021/07/21 05:17:13;;;;;;;92.18;11.45;;;;;;;15.64;77.96;98445.31;5033079;28;20044;-70
2021/07/21 05:19:39;;;;;;;89.22;11.20;;;;;;;15.64;78.27;98445.31;5033915;28;20567;-71
2021/07/21 05:22:04;;;;;;;97.75;12.25;;;;;;;15.74;78.23;98443.94;5032568;28;20637;-69
2021/07/21 05:24:29;;;;;;;102.93;12.55;;;;;;;15.69;78.38;98443.31;5032277;28;20372;-69
2021/07/21 05:26:55;;;;;;;111.53;12.45;;;;;;;15.71;79.17;98450.16;5032849;28;20045;-71
2021/07/21 05:29:20;;;;;;;96.30;12.48;;;;;;;15.76;79.49;98453.44;5031714;28;20049;-69
2021/07/21 05:31:45;;;;;;;110.47;12.95;;;;;;;15.86;77.91;98460.81;5031238;28;20029;-70
2021/07/21 05:34:11;;;;;;;99.18;11.73;;;;;;;15.72;79.91;98458.91;5033509;28;20786;-70
2021/07/21 05:36:38;;;;;;;101.85;12.90;;;;;;;15.89;78.41;98463.28;5033357;28;20049;-71
2021/07/21 05:39:09;;;;;;;93.60;12.30;;;;;;;15.78;79.22;98467.34;5033060;28;20033;-69
2021/07/21 05:41:34;;;;;;;121.68;13.35;;;;;;;16.31;77.28;98462.66;5031864;28;20038;-70
2021/07/21 05:44:00;;;;;;;112.50;12.15;;;;;;;16.28;79.44;98465.44;5033247;28;20403;-69
2021/07/21 05:46:25;;;;;;;93.78;12.05;;;;;;;16.31;77.96;98467.06;5032047;28;20156;-71
2021/07/21 05:48:51;;;;;;;102.78;12.55;;;;;;;16.36;77.68;98462.41;5031422;28;20033;-70
2021/07/21 05:51:16;;;;;;;116.13;12.15;;;;;;;16.63;76.84;98473.09;5032640;28;20037;-69
2021/07/21 05:53:42;;;;;;;91.45;12.15;;;;;;;16.76;76.26;98479.38;5032069;28;20029;-69
2021/07/21 05:56:12;;;;;;;109.03;12.20;;;;;;;16.84;75.71;98463.13;5030017;28;20040;-69
2021/07/21 05:58:37;;;;;;;77.38;10.02;;;;;;;17.20;74.21;98467.13;5033426;28;20056;-71
2021/07/21 06:01:03;;;;;;;77.88;10.68;;;;;;;17.17;73.94;98469.97;5031753;28;20248;-69
2021/07/21 06:03:28;;;;;;;93.70;11.68;;;;;;;17.19;74.64;98469.88;5031817;28;21013;-70
2021/07/21 06:05:53;;;;;;;109.90;12.52;;;;;;;17.01;75.60;98472.66;5031313;28;20080;-69
2021/07/21 06:08:18;;;;;;;92.25;10.85;;;;;;;17.31;74.30;98474.38;5030188;28;20462;-69
2021/07/21 06:10:44;;;;;;;98.63;11.30;;;;;;;17.79;72.12;98480.22;5031022;28;20505;-70
2021/07/21 06:13:12;;;;;;;83.00;10.77;;;;;;;17.70;72.80;98476.38;5032611;28;20033;-70
2021/07/21 06:15:38;;;;;;;98.32;10.70;;;;;;;18.02;71.79;98476.13;5032454;28;20041;-69
2021/07/21 06:18:04;;;;;;;92.28;10.13;;;;;;;18.41;70.08;98474.50;5032374;28;20112;-69
2021/07/21 06:20:29;;;;;;;95.25;10.25;;;;;;;18.80;68.59;98477.25;5030190;28;20167;-69
2021/07/21 06:22:54;;;;;;;92.32;10.65;;;;;;;18.16;71.30;98474.41;5033240;28;20905;-69
2021/07/21 06:25:20;;;;;;;95.72;10.23;;;;;;;18.74;68.80;98473.22;5031476;28;20108;-69
2021/07/21 06:27:45;;;;;;;122.20;11.20;;;;;;;18.34;69.20;98482.94;5031675;28;20141;-71
2021/07/21 06:30:12;;;;;;;100.15;10.65;;;;;;;18.36;70.19;98483.66;5030995;28;20029;-70
2021/07/21 06:32:38;;;;;;;99.53;10.30;;;;;;;18.88;68.58;98486.38;5033756;28;20021;-69
2021/07/21 06:35:05;;;;;;;84.88;10.57;;;;;;;18.56;68.83;98483.22;5032322;28;20017;-70
2021/07/21 06:37:30;;;;;;;83.38;11.05;;;;;;;18.36;69.21;98488.94;5029023;28;20144;-70
2021/07/21 06:39:56;;;;;;;93.65;10.38;;;;;;;18.61;69.05;98482.91;5030045;28;20476;-69
2021/07/21 06:42:21;;;;;;;106.38;11.35;;;;;;;19.26;67.24;98490.00;5029504;28;20045;-69
2021/07/21 06:44:46;;;;;;;108.75;11.77;;;;;;;18.70;68.43;98500.81;5031742;28;20037;-70
2021/07/21 06:47:12;;;;;;;89.90;9.65;;;;;;;19.49;66.56;98500.81;5031580;28;20037;-73
2021/07/21 06:49:38;;;;;;;87.97;10.38;;;;;;;19.03;67.50;98495.06;5031714;28;20021;-70
2021/07/21 06:52:04;;;;;;;78.15;9.40;;;;;;;19.87;65.48;98497.28;5030631;28;20134;-72
2021/07/21 06:54:29;;;;;;;103.38;10.70;;;;;;;19.70;65.88;98499.28;5032213;28;20036;-71
2021/07/21 06:56:57;;;;;;;104.10;10.13;;;;;;;20.33;63.64;98497.47;5028794;28;20410;-71
2021/07/21 06:59:24;;;;;;;101.40;11.13;;;;;;;19.52;65.70;98505.88;5030604;28;20976;-71
2021/07/21 07:01:49;;;;;;;107.95;10.82;;;;;;;20.50;62.84;98504.16;5032573;28;20036;-72
2021/07/21 07:04:15;;;;;;;105.35;10.80;;;;;;;20.87;61.71;98509.41;5032794;28;20026;-71
2021/07/21 07:06:40;;;;;;;83.20;10.57;;;;;;;21.24;60.41;98514.56;5029209;28;20037;-70
2021/07/21 07:09:05;;;;;;;96.40;10.25;;;;;;;21.51;58.82;98505.47;5031996;28;20917;-69
2021/07/21 07:11:31;;;;;;;106.55;10.25;;;;;;;21.67;58.28;98505.97;5029108;28;20388;-71
2021/07/21 07:13:56;;;;;;;86.53;10.07;;;;;;;21.17;60.21;98510.69;5031960;28;20125;-70
2021/07/21 07:16:21;;;;;;;108.28;10.60;;;;;;;21.20;59.45;98512.28;5028745;28;20067;-70
2021/07/21 07:18:47;;;;;;;100.45;10.70;;;;;;;21.75;57.95;98508.84;5033337;28;20097;-71
2021/07/21 07:21:12;;;;;;;82.32;9.68;;;;;;;21.46;58.42;98508.47;5031776;28;20799;-70
2021/07/21 07:23:37;;;;;;;84.32;9.63;;;;;;;21.51;58.31;98505.47;5029546;28;20033;-71
2021/07/21 07:26:03;;;;;;;93.40;10.07;;;;;;;21.81;57.77;98507.53;5026898;28;20034;-69
2021/07/21 07:28:29;;;;;;;77.47;9.88;;;;;;;20.98;60.42;98508.59;5030979;28;20108;-69
2021/07/21 07:30:54;;;;;;;99.22;10.15;;;;;;;21.77;58.27;98510.56;5031338;28;20038;-70
2021/07/21 07:33:22;;;;;;;102.90;10.45;;;;;;;22.52;55.87;98510.69;5030615;28;20045;-69
2021/07/21 07:35:47;;;;;;;96.32;10.38;;;;;;;22.66;55.51;98503.38;5030179;28;20632;-69
2021/07/21 07:38:14;;;;;;;78.22;9.55;;;;;;;22.18;56.68;98509.06;5029587;28;20755;-69
2021/07/21 07:40:40;;;;;;;96.88;10.48;;;;;;;22.38;55.94;98497.66;5029755;28;20037;-69
2021/07/21 07:43:06;;;;;;;75.95;9.70;;;;;;;22.37;56.17;98503.97;5030562;28;21027;-69
2021/07/21 07:45:32;;;;;;;77.88;9.45;;;;;;;22.42;56.05;98504.41;5029761;28;20037;-71
2021/07/21 07:47:58;;;;;;;87.95;10.10;;;;;;;23.22;53.63;98497.81;5029481;28;20429;-70
2021/07/21 07:50:23;;;;;;;84.05;9.98;;;;;;;22.76;54.09;98499.00;5030786;28;20066;-70
2021/07/21 07:52:49;;;;;;;84.97;10.13;;;;;;;22.61;55.00;98494.97;5031067;28;20021;-70
2021/07/21 07:55:14;;;;;;;95.63;10.65;;;;;;;22.34;55.85;98490.94;5028187;28;20044;-71
2021/07/21 07:57:40;;;;;;;86.57;10.05;;;;;;;22.92;54.27;98501.22;5030420;28;20121;-69
2021/07/21 08:00:07;;;;;;;88.53;10.52;;;;;;;23.05;54.06;98487.75;5031713;28;20448;-70
2021/07/21 08:02:33;;;;;;;78.55;9.38;;;;;;;23.04;53.57;98494.03;5028316;28;20055;-69
2021/07/21 08:04:58;;;;;;;86.30;10.30;;;;;;;22.95;53.64;98497.44;5028716;28;20020;-69
2021/07/21 08:07:25;;;;;;;86.95;9.98;;;;;;;22.74;54.84;98502.75;5029858;28;20036;-69
2021/07/21 08:09:51;;;;;;;79.88;9.40;;;;;;;23.00;54.00;98496.09;5030672;28;20107;-69
2021/07/21 08:12:16;;;;;;;80.68;10.27;;;;;;;22.45;53.56;98501.53;5027938;28;20037;-70
2021/07/21 08:14:42;;;;;;;78.90;10.20;;;;;;;23.29;53.40;98496.31;5031141;28;20036;-69
2021/07/21 08:17:07;;;;;;;81.78;9.65;;;;;;;23.19;53.49;98490.06;5028735;28;20037;-70
2021/07/21 08:19:32;;;;;;;77.18;9.65;;;;;;;23.67;52.13;98491.28;5031746;28;20028;-70
2021/07/21 08:21:58;;;;;;;98.60;11.07;;;;;;;22.79;54.99;98504.06;5028034;28;20446;-69
2021/07/21 08:24:24;;;;;;;88.00;10.55;;;;;;;23.36;52.33;98501.09;5030418;28;20113;-68
2021/07/21 08:26:49;;;;;;;97.13;11.25;;;;;;;22.87;52.39;98501.59;5031335;28;20128;-68
2021/07/21 08:29:15;;;;;;;84.00;10.45;;;;;;;22.28;53.51;98496.75;5031938;28;20025;-69
2021/07/21 08:31:41;;;;;;;103.78;11.88;;;;;;;22.48;55.34;98495.13;5030768;28;20075;-69
2021/07/21 08:34:08;;;;;;;95.50;10.02;;;;;;;22.57;54.88;98488.19;5030470;28;20032;-70
2021/07/21 08:36:35;;;;;;;82.57;10.57;;;;;;;23.05;53.84;98498.41;5028470;28;20030;-70
2021/07/21 08:39:03;;;;;;;91.65;10.98;;;;;;;22.77;54.93;98495.34;5030559;28;20049;-70
2021/07/21 08:41:28;;;;;;;92.80;11.32;;;;;;;21.96;55.57;98489.53;5029249;28;20037;-69
2021/07/21 08:43:54;;;;;;;97.18;11.60;;;;;;;21.98;55.91;98494.72;5029666;28;20651;-70
2021/07/21 08:46:22;;;;;;;88.53;9.75;;;;;;;22.78;54.51;98491.72;5028476;28;20069;-69
2021/07/21 08:48:54;;;;;;;93.10;9.95;;;;;;;23.61;52.54;98490.00;5028126;28;20025;-70
2021/07/21 08:51:23;;;;;;;;;;;;;;;23.78;51.74;98491.19;5030462;28;20033;-70
2021/07/21 08:53:49;;;;;;;92.18;10.63;;;;;;;23.13;53.33;98489.75;5028876;28;19913;-70
2021/07/21 08:56:16;;;;;;;88.03;10.55;;;;;;;22.62;55.73;98494.81;5036544;28;20041;-69
2021/07/21 08:58:41;;;;;;;81.47;9.52;;;;;;;23.48;52.63;98489.41;5025803;28;20060;-70
2021/07/21 09:01:07;;;;;;;94.03;10.10;;;;;;;23.59;52.33;98489.31;5028894;28;20550;-69
2021/07/21 09:03:32;;;;;;;73.65;9.68;;;;;;;24.26;50.46;98489.66;5029238;28;20021;-69
2021/07/21 09:05:57;;;;;;;89.75;10.43;;;;;;;23.79;51.51;98484.06;5028877;28;20143;-70
2021/07/21 09:08:23;;;;;;;104.65;10.63;;;;;;;24.01;50.89;98491.03;5029253;28;20029;-69
2021/07/21 09:10:49;;;;;;;95.07;10.57;;;;;;;23.38;53.61;98489.34;5028505;28;20044;-69
2021/07/21 09:13:15;;;;;;;101.88;10.48;;;;;;;23.23;52.38;98496.84;5029951;28;20116;-69
2021/07/21 09:15:46;;;;;;;99.50;11.23;;;;;;;23.24;51.48;98492.34;5027484;28;20041;-69
2021/07/21 09:18:15;;;;;;;79.03;9.30;;;;;;;24.24;50.47;98489.81;5029418;28;20861;-70
2021/07/21 09:20:57;;;;;;;98.05;10.57;;;;;;;24.46;50.00;98490.53;5026497;28;20041;-69
2021/07/21 09:23:39;;;;;;;;;;;;;;;24.31;50.02;98486.59;5032150;28;20032;-68
2021/07/21 09:26:07;;;;;;;88.57;10.25;;;;;;;23.75;53.62;98487.97;5030065;28;20346;-71
2021/07/21 09:28:38;;;;;;;100.28;10.93;;;;;;;23.76;49.59;98487.00;5028886;28;20434;-69
2021/07/21 09:31:04;;;;;;;90.88;10.40;;;;;;;24.77;48.75;98483.28;5026804;28;20029;-70
2021/07/21 09:33:30;;;;;;;96.13;10.45;;;;;;;24.76;48.63;98486.09;5028005;28;20862;-69
2021/07/21 09:35:56;;;;;;;94.28;10.43;;;;;;;23.89;47.03;98486.78;5029455;28;20034;-70
2021/07/21 09:38:25;;;;;;;91.07;10.02;;;;;;;23.48;50.32;98479.56;5028777;28;20033;-70
2021/07/21 09:41:04;;;;;;;97.85;10.48;;;;;;;23.87;49.85;98484.25;5028724;28;20037;-69
2021/07/21 09:43:32;;;;;;;96.50;11.00;;;;;;;24.16;48.52;98486.16;5030586;28;20041;-70
2021/07/21 09:46:05;;;;;;;91.43;10.20;;;;;;;24.14;49.75;98486.28;5027197;28;20053;-71
2021/07/21 09:48:35;;;;;;;93.82;10.60;;;;;;;24.36;49.16;98479.88;5028973;28;20108;-69
2021/07/21 09:51:00;;;;;;;86.10;10.00;;;;;;;25.28;47.26;98486.59;5030399;28;20040;-70
2021/07/21 09:53:45;;;;;;;103.10;11.68;;;;;;;23.57;50.20;98482.44;5035667;28;20039;-70
2021/07/21 09:56:11;;;;;;;95.18;10.65;;;;;;;23.62;50.89;98483.72;5030892;28;20044;-69
2021/07/21 09:58:37;;;;;;;81.80;9.85;;;;;;;23.54;49.66;98480.88;5032982;28;20033;-69
2021/07/21 10:01:05;;;;;;;82.15;9.98;;;;;;;23.92;50.01;98484.69;5029783;28;20727;-71
2021/07/21 10:03:34;;;;;;;81.47;9.55;;;;;;;24.11;49.50;98480.38;5032167;28;20053;-70
2021/07/21 10:06:08;;;;;;;91.93;9.93;;;;;;;24.30;49.67;98477.78;5031246;28;20045;-70
2021/07/21 10:08:47;;;;;;;91.85;9.65;;;;;;;25.06;47.95;98486.91;5030836;28;20495;-70
2021/07/21 10:11:21;;;;;;;93.35;10.00;;;;;;;24.88;48.21;98487.63;5030098;28;20037;-70
2021/07/21 10:13:48;;;;;;;91.45;9.88;;;;;;;25.16;47.27;98477.91;5029869;28;20862;-71
2021/07/21 10:16:30;;;;;;;89.20;9.93;;;;;;;24.58;48.09;98477.97;5030217;28;20041;-70
2021/07/21 10:19:04;;;;;;;97.97;10.52;;;;;;;24.77;47.49;98477.94;5031338;28;20033;-70
2021/07/21 10:21:29;;;;;;;81.43;9.45;;;;;;;24.64;49.52;98480.06;5031331;28;20109;-70
2021/07/21 10:23:56;;;;;;;82.78;9.68;;;;;;;24.91;47.99;98479.34;5032404;28;20744;-70
2021/07/21 10:26:21;;;;;;;101.57;10.57;;;;;;;25.30;46.44;98476.63;5028357;28;20053;-70
2021/07/21 10:28:48;;;;;;;89.35;9.93;;;;;;;24.93;47.35;98473.88;5031502;28;20020;-71
2021/07/21 10:31:13;;;;;;;78.75;9.32;;;;;;;24.44;48.25;98474.69;5030370;28;20026;-71
2021/07/21 10:33:39;;;;;;;79.05;9.70;;;;;;;23.99;47.08;98467.19;5031881;28;20090;-71
2021/07/21 10:36:04;;;;;;;70.85;8.82;;;;;;;24.65;48.43;98471.09;5030113;28;20057;-70
2021/07/21 10:38:31;;;;;;;94.50;10.20;;;;;;;24.80;49.19;98472.31;5031303;28;20025;-69
2021/07/21 10:40:57;;;;;;;84.13;9.68;;;;;;;25.13;46.41;98475.50;5033261;28;20045;-70
2021/07/21 10:43:27;;;;;;;81.28;9.65;;;;;;;24.47;46.21;98467.41;5031861;28;20144;-70
2021/07/21 10:45:53;;;;;;;85.90;9.82;;;;;;;25.36;46.59;98477.88;5030452;28;20049;-71
2021/07/21 10:48:28;;;;;;;91.28;9.98;;;;;;;25.26;44.14;98472.56;5031990;28;20071;-70
2021/07/21 10:51:04;;;;;;;97.95;9.77;;;;;;;24.96;46.52;98465.56;5031682;28;20135;-71
2021/07/21 10:59:11;;;;;;;82.07;9.38;;;;;;;24.30;45.97;98464.44;5030959;28;20040;-70
2021/07/21 11:01:42;;;;;;;104.35;10.23;;;;;;;23.80;45.73;98456.47;5030227;28;20911;-69
2021/07/21 11:04:07;;;;;;;94.18;9.98;;;;;;;24.64;46.98;98458.72;5032020;28;20043;-69
2021/07/21 11:06:38;;;;;;;85.25;10.07;;;;;;;24.33;48.62;98450.81;5031469;28;20045;-72
2021/07/21 11:09:15;;;;;;;81.40;8.88;;;;;;;25.23;46.13;98450.63;5031125;28;20729;-69
2021/07/21 11:11:41;;;;;;;99.85;10.15;;;;;;;25.46;46.04;98446.66;5038214;28;20041;-71
2021/07/21 11:14:09;;;;;;;78.22;9.35;;;;;;;25.61;45.05;98443.50;5029608;28;20040;-71
2021/07/21 11:16:39;;;;;;;86.80;9.05;;;;;;;25.52;43.83;98443.38;5030315;28;20475;-70
2021/07/21 11:19:23;;;;;;;89.22;13.82;;;;;;;24.93;44.75;98444.50;5030499;28;20034;-70
2021/07/21 11:21:57;;;;;;;89.57;9.73;;;;;;;23.64;43.81;98439.16;5030625;28;20034;-69
2021/07/21 11:24:22;;;;;;;91.28;9.82;;;;;;;24.52;43.89;98435.81;5029487;28;20067;-69
2021/07/21 11:26:52;;;;;;;99.93;9.95;;;;;;;25.04;44.66;98441.69;5029035;28;20065;-71